Terminal Aerodrome Forecast
Issued by NWS Knoxville/Tri Cities, TN

Current Version | Previous Version | Text Only | Print | Product List | Glossary On
Versions: 1 2 3 4 5 6 7 8 9 10 11 12 13 14 15 16 17 18 19 20 21 22 23 24 25 26 27 28 29 30 31 32 33 34 35 36 37 38 39 40 41
000
FTUS44 KMRX 302320
TAFTRI
TAF
KTRI 302320Z 3100/3124 35004KT P6SM SCT025
     FM310200 00000KT P6SM SKC
     FM310700 00000KT 3SM BR SKC
     FM310900 00000KT 1/2SM FG BKN002
     FM311230 00000KT 5SM BR FEW002
     FM311600 25005KT P6SM FEW040 SCT250
     FM312100 11006KT P6SM SCT050 BKN100=

USA.gov is the U.S. government's official web portal to all federal, state and local government web resources and services.